Time;durP1;ratioP1;P1;durP2;ratioP2;P2;SDS_P1;SDS_P2;PMS_P1;PMS_P2;Temp;Humidity;BMP_temperature;BMP_pressure;BME280_temperature;BME280_humidity;BME280_pressure;Samples;Min_cycle;Max_cycle;Signal;HPM_P1;HPM_P2
2021/06/02 00:01:35;;;;;;;6.35;3.70;;;13.60;60.70;;;12.39;57.84;95863.63;4989278;28;20386;-71
2021/06/02 00:04:02;;;;;;;6.25;3.17;;;13.60;60.50;;;12.35;56.54;95859.78;4983823;28;20034;-71
2021/06/02 00:06:27;;;;;;;5.60;3.65;;;13.60;59.60;;;12.27;56.86;95864.25;4991104;28;20052;-71
2021/06/02 00:08:53;;;;;;;7.30;3.38;;;13.40;59.80;;;12.24;56.60;95863.88;4971119;28;20490;-71
2021/06/02 00:11:19;;;;;;;5.03;3.42;;;13.40;59.70;;;12.19;56.79;95863.63;4989784;28;20058;-73
2021/06/02 00:13:44;;;;;;;4.53;3.15;;;13.40;59.60;;;12.14;57.10;95864.25;5004868;28;20057;-73
2021/06/02 00:16:10;;;;;;;5.32;3.40;;;13.40;59.40;;;12.08;57.26;95865.06;5000180;28;20497;-73
2021/06/02 00:18:37;;;;;;;5.65;3.50;;;13.30;59.60;;;12.05;56.63;95864.69;5000318;28;20088;-72
2021/06/02 00:21:03;;;;;;;4.68;3.65;;;13.20;59.70;;;12.03;57.11;95861.44;4975738;28;20038;-71
2021/06/02 00:23:29;;;;;;;4.75;3.38;;;13.20;60.30;;;12.00;57.39;95864.50;4997463;28;20084;-72
2021/06/02 00:25:54;;;;;;;5.13;3.50;;;13.10;60.90;;;11.96;57.19;95866.69;4993094;28;20049;-71
2021/06/02 00:28:20;;;;;;;8.18;3.30;;;13.10;61.00;;;11.94;57.66;95863.44;4993669;28;20125;-72
2021/06/02 00:30:46;;;;;;;6.53;3.42;;;13.10;61.00;;;11.90;58.09;95862.25;5010319;28;20112;-72
2021/06/02 00:33:12;;;;;;;5.82;3.78;;;13.10;60.90;;;11.86;57.68;95861.03;4996476;28;20510;-72
2021/06/02 00:35:38;;;;;;;6.10;3.05;;;13.00;60.70;;;11.80;58.42;95860.03;4986414;28;20037;-73
2021/06/02 00:38:04;;;;;;;4.75;3.22;;;13.00;61.20;;;11.75;58.26;95856.31;4981729;28;20045;-71
2021/06/02 00:40:47;;;;;;;5.93;3.38;;;12.90;61.70;;;11.71;59.92;95853.28;5006629;28;20108;-72
2021/06/02 00:43:16;;;;;;;5.47;3.40;;;13.00;61.70;;;11.67;58.55;95852.06;4968120;28;20057;-72
2021/06/02 00:45:43;;;;;;;5.68;3.40;;;12.90;61.60;;;11.64;58.82;95850.66;4980646;28;20064;-72
2021/06/02 00:48:15;;;;;;;5.70;3.35;;;12.80;61.30;;;11.61;59.00;95850.25;5003054;28;20046;-71
2021/06/02 00:50:45;;;;;;;11.25;3.28;;;12.80;61.40;;;11.56;59.22;95845.59;4973744;28;20037;-72
2021/06/02 00:53:11;;;;;;;6.43;3.50;;;12.80;61.50;;;11.55;58.49;95843.97;4969931;28;20041;-72
2021/06/02 00:55:37;;;;;;;5.38;3.42;;;12.80;61.70;;;11.53;58.74;95845.97;4984356;28;20118;-72
2021/06/02 00:58:03;;;;;;;7.55;4.00;;;12.70;61.60;;;11.54;58.70;95847.59;4979231;28;20128;-71
2021/06/02 01:00:28;;;;;;;5.57;3.58;;;12.80;62.10;;;11.53;58.20;95851.22;4986277;28;20066;-73
2021/06/02 01:02:54;;;;;;;5.47;3.40;;;12.70;62.40;;;11.52;58.25;95848.78;4980540;28;20056;-71
2021/06/02 01:05:22;;;;;;;5.20;3.47;;;12.70;62.30;;;11.50;58.70;95850.81;4988764;28;20105;-72
2021/06/02 01:07:52;;;;;;;4.38;3.42;;;12.70;62.20;;;11.48;60.66;95842.31;4973446;28;20026;-71
2021/06/02 01:10:19;;;;;;;4.20;3.17;;;12.60;62.90;;;11.45;59.26;95846.16;4991738;28;20514;-71
2021/06/02 01:12:49;;;;;;;4.63;3.42;;;12.60;62.80;;;11.38;60.47;95847.97;4996940;28;20520;-73
2021/06/02 01:15:17;;;;;;;5.32;3.35;;;12.60;62.30;;;11.34;59.31;95842.31;4994387;28;20030;-72
2021/06/02 01:17:43;;;;;;;6.05;3.75;;;12.60;62.30;;;11.31;59.93;95849.78;4987651;28;20253;-72
2021/06/02 01:20:09;;;;;;;4.93;3.08;;;12.60;62.40;;;11.26;59.21;95844.28;4956676;28;20054;-72
2021/06/02 01:22:36;;;;;;;4.30;3.53;;;12.50;62.50;;;11.23;59.36;95844.69;4977802;28;20026;-73
2021/06/02 01:25:16;;;;;;;5.53;3.58;;;12.50;62.60;;;11.22;61.76;95840.44;4975346;28;20033;-72
2021/06/02 01:27:42;;;;;;;5.03;3.40;;;12.50;63.10;;;11.21;60.21;95837.00;4975238;28;20112;-73
2021/06/02 01:30:14;;;;;;;4.68;3.83;;;12.50;63.20;;;11.19;60.96;95848.75;4984938;28;20046;-73
2021/06/02 01:32:56;;;;;;;5.28;3.50;;;12.40;63.10;;;11.17;61.66;95837.59;5003805;28;20469;-72
2021/06/02 01:35:44;;;;;;;4.90;3.33;;;12.40;62.90;;;11.14;60.57;95843.28;5006814;28;20121;-72
2021/06/02 01:38:45;;;;;;;7.35;3.70;;;12.40;62.50;;;11.11;61.92;95841.03;5020497;28;20044;-72
2021/06/02 01:41:31;;;;;;;5.28;3.95;;;12.40;62.30;;;11.08;60.46;95841.41;4997064;28;20470;-72
2021/06/02 01:44:50;;;;;;;4.95;3.60;;;12.40;62.70;;;11.02;62.21;95835.13;4975800;28;20077;-72
2021/06/02 01:47:24;;;;;;;5.15;3.35;;;12.40;62.30;;;10.97;60.44;95830.47;5024109;28;20378;-72
2021/06/02 01:50:30;;;;;;;5.28;3.55;;;12.30;62.20;;;10.91;61.71;95836.50;5004692;28;20034;-72
2021/06/02 01:53:30;;;;;;;9.02;3.70;;;12.20;61.90;;;10.85;62.15;95842.53;5005235;28;20037;-73
2021/06/02 01:56:23;;;;;;;5.43;3.80;;;12.10;62.10;;;10.81;62.39;95835.25;4999433;28;20117;-72
2021/06/02 01:59:22;;;;;;;4.55;3.47;;;12.10;62.40;;;10.82;62.40;95832.41;4987939;28;20092;-71
2021/06/02 02:02:27;;;;;;;5.05;3.70;;;12.10;62.60;;;10.80;61.58;95837.06;5022973;28;20034;-72
2021/06/02 02:05:29;;;;;;;6.25;3.80;;;12.10;63.30;;;10.80;62.71;95821.28;5001296;28;20026;-71
2021/06/02 02:07:58;;;;;;;6.72;4.00;;;12.10;63.60;;;10.79;60.89;95827.56;5007591;28;20018;-73
2021/06/02 02:10:52;;;;;;;5.15;3.80;;;12.10;63.80;;;10.78;62.89;95833.00;5007199;28;20083;-73
2021/06/02 02:13:27;;;;;;;5.40;3.92;;;12.10;64.10;;;10.75;61.76;95836.84;4990596;28;20034;-71
2021/06/02 02:16:18;;;;;;;5.93;3.90;;;12.10;64.20;;;10.74;62.08;95836.03;5008981;28;20038;-72
2021/06/02 02:19:41;;;;;;;;;;;12.10;64.10;;;10.70;62.40;95834.81;4975757;28;20054;-72
2021/06/02 02:22:19;;;;;;;6.47;4.05;;;12.10;64.50;;;10.68;62.65;95841.28;4958191;28;20337;-71
2021/06/02 02:24:56;;;;;;;6.00;3.67;;;12.00;64.50;;;10.66;63.10;95830.97;4952966;28;20062;-71
2021/06/02 02:27:46;;;;;;;9.10;4.10;;;12.00;64.50;;;10.67;62.06;95831.75;4992297;28;20509;-71
2021/06/02 02:30:43;;;;;;;7.70;3.90;;;12.00;64.00;;;10.68;62.39;95836.03;4988069;28;20132;-71
2021/06/02 02:33:14;;;;;;;6.07;3.65;;;12.10;63.10;;;10.70;62.11;95834.00;5007961;28;20037;-72
2021/06/02 02:35:58;;;;;;;6.35;3.65;;;12.10;63.50;;;10.73;62.62;95838.88;4994650;28;20054;-73
2021/06/02 02:39:15;;;;;;;5.30;4.18;;;12.10;63.70;;;10.74;62.60;95843.13;4989327;28;20046;-72
2021/06/02 02:42:13;;;;;;;4.45;3.70;;;12.10;63.70;;;10.75;62.32;95842.13;5001732;28;20042;-73
2021/06/02 02:45:25;;;;;;;5.80;3.90;;;12.10;63.60;;;10.77;62.44;95845.34;4994385;28;20049;-72
2021/06/02 02:48:03;;;;;;;8.15;4.05;;;12.10;63.40;;;10.74;62.15;95851.00;4988819;28;20084;-72
2021/06/02 02:50:51;;;;;;;4.25;3.67;;;12.10;63.60;;;10.71;63.39;95846.16;4999249;28;20026;-72
2021/06/02 02:53:30;;;;;;;7.30;4.40;;;12.10;63.30;;;10.68;63.07;95852.63;4975768;28;20038;-72
2021/06/02 02:56:01;;;;;;;5.25;3.78;;;12.10;63.90;;;10.66;63.24;95859.88;5019235;28;20481;-72
2021/06/02 02:58:46;;;;;;;6.47;3.65;;;12.00;64.00;;;10.66;63.34;95859.88;4998511;28;20037;-72
2021/06/02 03:01:22;;;;;;;6.85;4.10;;;12.00;64.20;;;10.63;62.94;95859.44;4991997;28;20078;-72
2021/06/02 03:04:24;;;;;;;6.05;4.00;;;12.00;64.50;;;10.61;63.60;95856.19;4994855;28;20037;-72
2021/06/02 03:06:55;;;;;;;6.43;4.13;;;12.00;64.90;;;10.57;62.81;95854.97;4990350;28;20033;-74
2021/06/02 03:09:57;;;;;;;;;;;11.90;64.70;;;10.51;62.73;95866.28;4994615;28;20034;-71
2021/06/02 03:12:56;;;;;;;5.22;3.97;;;11.80;64.70;;;10.46;64.10;95858.97;5007486;28;19963;-71
2021/06/02 03:15:45;;;;;;;6.97;4.30;;;11.80;64.60;;;10.40;63.72;95852.66;5026662;28;20038;-72
2021/06/02 03:18:40;;;;;;;8.02;4.10;;;11.70;64.40;;;10.35;64.06;95856.88;4975404;28;20117;-72
2021/06/02 03:21:37;;;;;;;9.30;4.60;;;11.70;64.50;;;10.33;64.24;95864.13;4995490;28;20072;-71
2021/06/02 03:24:28;;;;;;;5.70;4.13;;;11.70;64.60;;;10.30;64.34;95861.91;4991459;28;20030;-72
2021/06/02 03:27:03;;;;;;;6.40;4.60;;;11.70;64.50;;;10.26;62.91;95864.09;4994839;28;20038;-71
2021/06/02 03:29:53;;;;;;;5.43;4.20;;;11.60;64.30;;;10.21;63.79;95866.50;4976318;28;20172;-72
2021/06/02 03:33:12;;;;;;;8.55;4.40;;;11.60;64.40;;;10.19;63.46;95875.56;5007472;28;20046;-71
2021/06/02 03:35:56;;;;;;;5.53;4.57;;;11.60;64.80;;;10.12;63.44;95878.13;4981598;28;20034;-73
2021/06/02 03:38:59;;;;;;;5.63;4.72;;;11.50;65.00;;;10.10;64.10;95874.88;5026657;28;20049;-71
2021/06/02 03:41:56;;;;;;;5.97;4.55;;;11.50;65.40;;;10.08;65.09;95877.69;4995393;28;20030;-72
2021/06/02 03:44:52;;;;;;;7.60;3.97;;;11.50;65.60;;;10.09;64.96;95883.75;4986892;28;20034;-72
2021/06/02 03:47:35;;;;;;;8.02;4.75;;;11.50;65.90;;;10.10;64.39;95885.38;4994799;28;20030;-72
2021/06/02 03:50:17;;;;;;;8.73;4.95;;;11.50;66.40;;;10.11;65.04;95887.00;4993017;28;20030;-72
2021/06/02 03:52:48;;;;;;;5.53;4.55;;;11.50;66.40;;;10.09;63.96;95894.28;5008036;28;20026;-72
2021/06/02 03:55:39;;;;;;;7.57;4.13;;;11.50;66.50;;;10.09;64.84;95897.72;5008479;28;20038;-72
2021/06/02 03:58:46;;;;;;;5.85;4.40;;;11.50;66.20;;;10.10;64.85;95903.78;5009855;28;20132;-71
2021/06/02 04:01:29;;;;;;;6.45;4.57;;;11.50;66.20;;;10.07;65.46;95897.09;5005308;28;20033;-71
2021/06/02 04:04:38;;;;;;;8.70;4.53;;;11.50;66.20;;;10.09;64.88;95904.78;5019750;28;20084;-72
2021/06/02 04:07:08;;;;;;;5.95;4.25;;;11.60;66.30;;;10.11;65.12;95903.59;5007044;28;20050;-71
2021/06/02 04:09:54;;;;;;;7.37;4.40;;;11.60;67.00;;;10.17;66.31;95902.00;4961314;28;20501;-71
2021/06/02 04:12:50;;;;;;;9.15;4.25;;;11.60;66.90;;;10.21;66.30;95900.69;4990962;28;20038;-69
2021/06/02 04:15:16;;;;;;;5.45;4.28;;;11.60;67.40;;;10.21;64.38;95908.56;4984487;28;20038;-66
2021/06/02 04:17:47;;;;;;;6.55;4.70;;;11.60;67.10;;;10.21;65.29;95913.81;4987724;28;20030;-67
2021/06/02 04:20:14;;;;;;;6.60;4.38;;;11.60;67.50;;;10.20;64.06;95911.34;5002796;28;20076;-70
2021/06/02 04:22:41;;;;;;;8.02;4.28;;;11.60;67.60;;;10.17;65.36;95915.16;4975884;28;20042;-70
2021/06/02 04:25:08;;;;;;;5.85;4.28;;;11.60;67.40;;;10.14;64.88;95918.97;4992010;28;20113;-71
2021/06/02 04:27:34;;;;;;;9.20;4.82;;;11.60;67.90;;;10.17;64.83;95923.03;4988810;28;20517;-72
2021/06/02 04:30:05;;;;;;;6.82;4.78;;;11.60;68.00;;;10.18;66.41;95927.28;5008053;28;20046;-71
2021/06/02 04:32:42;;;;;;;;;;;11.60;68.40;;;10.20;66.49;95932.38;4976629;28;20092;-71
2021/06/02 04:35:09;;;;;;;6.22;4.22;;;11.60;68.60;;;10.21;64.75;95924.34;4992291;28;19929;-71
2021/06/02 04:37:35;;;;;;;7.95;4.38;;;11.70;68.70;;;10.24;65.13;95931.84;5008512;28;20037;-72
2021/06/02 04:40:05;;;;;;;8.10;5.50;;;11.80;68.60;;;10.28;66.13;95929.63;4981213;28;20117;-72
2021/06/02 04:42:39;;;;;;;7.95;5.00;;;11.80;68.60;;;10.32;67.70;95925.59;4987236;28;20489;-72
2021/06/02 04:45:19;;;;;;;5.53;4.45;;;11.90;68.80;;;10.40;68.52;95928.09;5008975;28;20037;-72
2021/06/02 04:47:45;;;;;;;8.15;4.70;;;12.00;69.20;;;10.45;65.45;95930.97;4976473;28;20026;-71
2021/06/02 04:50:14;;;;;;;8.75;4.40;;;12.00;69.40;;;10.51;68.09;95932.00;4972211;28;20127;-66
2021/06/02 04:53:24;;;;;;;6.93;5.03;;;12.10;69.20;;;10.60;69.69;95933.47;5016747;28;20091;-70
2021/06/02 04:56:46;;;;;;;13.98;7.05;;;12.20;69.60;;;10.66;69.13;95932.72;5019022;28;20050;-68
2021/06/02 04:59:48;;;;;;;;;;;12.30;69.50;;;10.72;67.42;95939.84;5008402;28;20044;-67
2021/06/02 05:02:41;;;;;;;6.95;4.70;;;12.40;68.50;;;10.81;66.85;95930.78;5025219;28;19925;-66
2021/06/02 05:05:24;;;;;;;7.72;4.57;;;12.50;67.30;;;10.91;66.03;95939.13;5005982;28;20049;-66
2021/06/02 05:08:27;;;;;;;5.95;4.28;;;12.60;67.00;;;11.01;67.14;95942.22;4989102;28;20058;-67
2021/06/02 05:11:36;;;;;;;5.65;4.38;;;12.70;65.70;;;11.13;65.96;95939.84;4990052;28;20662;-68
2021/06/02 05:14:42;;;;;;;22.00;15.20;;;12.90;66.10;;;11.25;66.23;95942.72;5011517;28;20068;-67
2021/06/02 05:17:29;;;;;;;13.93;9.60;;;13.00;65.30;;;11.41;64.70;95937.13;4988856;28;20069;-67
2021/06/02 05:23:49;;;;;;;9.57;4.53;;;13.30;63.60;;;11.66;64.43;95932.94;4975025;28;20034;-68
2021/06/02 05:26:33;;;;;;;10.20;5.85;;;13.50;62.80;;;11.79;63.23;95934.00;5002777;28;20125;-65
2021/06/02 05:29:30;;;;;;;11.02;6.60;;;13.70;62.90;;;11.94;63.85;95943.34;4998704;28;20057;-66
2021/06/02 05:32:48;;;;;;;7.53;6.07;;;13.80;62.00;;;12.08;63.22;95941.53;5005217;28;20145;-68
2021/06/02 05:36:34;;;;;;;23.60;14.10;;;14.10;61.40;;;12.29;64.42;95937.09;4955325;28;20039;-68
2021/06/02 05:39:49;;;;;;;13.15;7.53;;;14.30;61.60;;;12.47;62.85;95943.38;4970571;28;20046;-68
2021/06/02 05:42:48;;;;;;;24.15;15.95;;;14.60;59.90;;;12.68;62.90;95944.97;4967134;28;20494;-68
2021/06/02 05:45:51;;;;;;;17.55;11.73;;;14.90;59.40;;;12.86;62.96;95945.13;5008276;28;20046;-68
2021/06/02 05:49:19;;;;;;;17.23;12.48;;;15.20;59.50;;;13.08;63.56;95939.56;5024561;28;20034;-67
2021/06/02 05:52:16;;;;;;;11.80;8.63;;;15.40;59.30;;;13.30;62.26;95943.59;4978875;28;20030;-68
2021/06/02 05:55:22;;;;;;;13.38;8.65;;;15.70;57.80;;;13.52;62.69;95945.94;4988443;28;20117;-68
2021/06/02 05:58:43;;;;;;;10.20;5.90;;;16.10;57.90;;;13.76;61.13;95947.84;5011229;28;20488;-68
2021/06/02 06:01:46;;;;;;;13.18;7.30;;;16.30;56.90;;;13.94;59.99;95950.56;5027555;28;20041;-68
2021/06/02 06:04:30;;;;;;;16.48;10.18;;;16.50;53.80;;;14.14;58.54;95944.34;5027935;28;20037;-68
2021/06/02 06:07:24;;;;;;;12.00;6.93;;;16.70;53.90;;;14.30;57.92;95949.13;5001731;28;20084;-68
2021/06/02 06:10:28;;;;;;;15.80;7.68;;;16.80;52.50;;;14.48;58.41;95956.31;5008347;28;20041;-68
2021/06/02 06:13:53;;;;;;;11.20;6.75;;;17.00;52.30;;;14.66;57.53;95949.22;5007561;28;20038;-69
2021/06/02 06:16:44;;;;;;;25.13;18.42;;;17.30;50.80;;;14.90;56.47;95955.50;4980518;28;20625;-66
2021/06/02 06:19:53;;;;;;;12.60;7.03;;;17.70;50.90;;;15.13;55.74;95960.16;4991474;28;20031;-68
2021/06/02 06:22:57;;;;;;;20.95;14.48;;;17.90;50.30;;;15.33;55.39;95955.44;5011665;28;20049;-68
2021/06/02 06:25:39;;;;;;;10.80;6.20;;;18.20;49.30;;;15.56;56.00;95953.94;4995042;28;20058;-67
2021/06/02 06:28:45;;;;;;;6.90;4.55;;;18.70;47.90;;;15.75;55.65;95952.91;4966957;28;20034;-69
2021/06/02 06:31:19;;;;;;;7.25;3.97;;;19.10;46.70;;;15.95;54.40;95943.88;5017936;28;20128;-69
2021/06/02 06:33:45;;;;;;;7.30;4.95;;;19.30;46.40;;;16.14;56.57;95950.75;4994345;28;20117;-68
2021/06/02 06:36:11;;;;;;;6.05;4.45;;;19.50;46.80;;;16.31;55.90;95950.91;4991626;28;20379;-67
2021/06/02 06:39:00;;;;;;;8.82;4.45;;;19.50;45.10;;;16.52;53.10;95948.50;4990012;28;20389;-71
2021/06/02 06:41:28;;;;;;;6.82;4.43;;;19.70;45.50;;;16.74;54.80;95953.25;5010321;28;20044;-70
2021/06/02 06:43:54;;;;;;;12.02;4.88;;;20.00;44.40;;;16.91;54.36;95956.84;4973584;28;20117;-67
2021/06/02 06:46:22;;;;;;;8.13;4.43;;;20.10;44.40;;;17.10;53.85;95961.00;4990697;28;20121;-67
2021/06/02 06:48:48;;;;;;;9.68;4.47;;;20.30;45.10;;;17.28;53.95;95956.59;4989092;28;20037;-70
2021/06/02 06:51:14;;;;;;;7.22;4.60;;;20.50;44.40;;;17.45;53.62;95952.97;4977636;28;20478;-67
2021/06/02 06:53:40;;;;;;;6.50;4.28;;;20.60;44.50;;;17.62;52.75;95962.84;4994902;28;20252;-70
2021/06/02 06:56:08;;;;;;;5.88;4.20;;;20.80;42.70;;;17.83;52.05;95959.56;4971932;28;20046;-68
2021/06/02 06:58:34;;;;;;;5.78;4.13;;;21.10;41.80;;;18.02;52.15;95957.50;4991124;28;20118;-69
2021/06/02 07:01:00;;;;;;;7.13;4.05;;;21.20;42.40;;;18.13;51.33;95964.66;4994785;28;20125;-72
2021/06/02 07:03:25;;;;;;;7.63;4.13;;;21.40;40.50;;;18.27;50.56;95963.28;4994108;28;20113;-69
2021/06/02 07:05:51;;;;;;;7.75;4.43;;;21.80;40.70;;;18.44;50.99;95962.50;4997265;28;20062;-69
2021/06/02 07:08:17;;;;;;;7.57;4.20;;;22.00;40.10;;;18.53;50.10;95969.03;5000072;28;20077;-69
2021/06/02 07:10:42;;;;;;;7.05;4.18;;;22.10;39.50;;;18.74;49.53;95971.00;4991340;28;20057;-68
2021/06/02 07:13:09;;;;;;;5.28;4.05;;;22.50;39.30;;;18.96;49.31;95969.19;4990913;28;20042;-69
2021/06/02 07:15:35;;;;;;;8.88;5.07;;;22.70;38.60;;;19.14;49.39;95973.44;4993805;28;20638;-69
2021/06/02 07:18:01;;;;;;;6.60;4.90;;;22.90;38.00;;;19.29;48.80;95967.53;4994630;28;20030;-69
2021/06/02 07:20:28;;;;;;;9.48;5.22;;;23.00;38.60;;;19.45;48.16;95971.19;4994255;28;20401;-69
2021/06/02 07:22:54;;;;;;;5.32;4.30;;;23.20;38.00;;;19.55;47.48;95971.34;4978117;28;20061;-68
2021/06/02 07:25:25;;;;;;;7.30;3.65;;;23.10;36.20;;;19.71;45.86;95969.69;4977997;28;20026;-67
2021/06/02 07:27:51;;;;;;;9.52;5.82;;;23.60;37.20;;;19.87;47.17;95966.09;4978582;28;20025;-68
2021/06/02 07:30:18;;;;;;;10.48;6.00;;;23.70;37.90;;;20.04;47.29;95969.50;4994441;28;20026;-69
2021/06/02 07:32:44;;;;;;;10.40;6.38;;;24.00;37.00;;;20.19;46.58;95972.34;4978216;28;20038;-68
2021/06/02 07:35:11;;;;;;;11.23;4.72;;;24.20;37.20;;;20.32;45.88;95960.41;5010080;28;20441;-69
2021/06/02 07:37:36;;;;;;;12.52;10.05;;;24.30;35.20;;;20.46;46.81;95964.31;4978417;28;20022;-69
2021/06/02 07:40:04;;;;;;;11.77;6.57;;;24.60;36.20;;;20.66;46.53;95969.03;4993449;28;20049;-69
2021/06/02 07:42:30;;;;;;;10.65;6.30;;;24.90;37.00;;;20.84;46.09;95967.84;4994307;28;20030;-68
2021/06/02 07:44:56;;;;;;;17.52;8.80;;;25.10;34.60;;;21.02;45.02;95977.28;5010147;28;20053;-69
2021/06/02 07:47:21;;;;;;;7.65;5.47;;;25.30;34.80;;;21.19;46.09;95972.59;4993713;28;20061;-67
2021/06/02 07:49:47;;;;;;;7.25;4.40;;;25.60;33.60;;;21.29;45.34;95975.38;4977615;28;20033;-68
2021/06/02 07:52:13;;;;;;;12.20;7.78;;;25.60;33.10;;;21.44;44.99;95971.94;4994197;28;20418;-68
2021/06/02 07:54:39;;;;;;;8.13;4.15;;;25.50;35.40;;;21.61;44.90;95980.59;4977882;28;20042;-68
2021/06/02 07:57:05;;;;;;;6.68;4.13;;;25.90;35.00;;;21.77;44.22;95972.63;4977406;28;20038;-67
2021/06/02 07:59:31;;;;;;;7.78;5.53;;;25.90;33.00;;;21.85;44.42;95975.59;5010065;28;20022;-69
2021/06/02 08:01:57;;;;;;;9.95;6.70;;;26.00;33.20;;;22.00;43.57;95969.50;4993914;28;20198;-68
2021/06/02 08:04:23;;;;;;;7.32;5.07;;;26.20;32.60;;;22.17;43.11;95964.72;4993665;28;20037;-68
2021/06/02 08:06:49;;;;;;;6.75;4.28;;;26.20;32.30;;;22.36;42.42;95973.06;4980284;28;20022;-69
2021/06/02 08:09:18;;;;;;;9.40;3.75;;;26.40;30.80;;;22.53;42.38;95973.63;4990056;28;20114;-69
2021/06/02 08:11:47;;;;;;;8.55;3.72;;;26.30;32.50;;;22.64;40.25;95968.28;4975208;28;20038;-69
2021/06/02 08:14:13;;;;;;;7.70;4.93;;;26.50;31.00;;;22.78;42.19;95963.97;4982330;28;20466;-70
2021/06/02 08:16:39;;;;;;;9.25;6.00;;;26.90;31.90;;;23.03;42.97;95961.28;4995174;28;20110;-71
2021/06/02 08:19:04;;;;;;;8.77;4.40;;;27.10;33.60;;;23.32;42.70;95974.13;4993695;28;20069;-72
2021/06/02 08:21:32;;;;;;;8.45;4.30;;;27.50;32.60;;;23.53;41.13;95971.06;4988906;28;20028;-67
2021/06/02 08:23:57;;;;;;;6.82;3.65;;;27.60;30.80;;;23.73;41.78;95970.22;4991731;28;20034;-72
2021/06/02 08:26:23;;;;;;;8.73;3.75;;;27.60;31.60;;;23.94;40.80;95975.50;4992603;28;20041;-68
2021/06/02 08:28:49;;;;;;;6.30;3.92;;;27.90;29.80;;;24.13;40.68;95971.09;4992058;28;20125;-67
2021/06/02 08:31:15;;;;;;;7.68;4.28;;;28.20;30.60;;;24.41;39.49;95981.16;4992617;28;20105;-67
2021/06/02 08:33:43;;;;;;;12.32;5.90;;;28.30;29.70;;;24.52;39.18;95981.13;4976054;28;20125;-66
2021/06/02 08:36:09;;;;;;;8.02;5.68;;;28.00;30.10;;;24.69;39.07;95976.97;4976302;28;20052;-67
2021/06/02 08:38:35;;;;;;;8.68;6.60;;;28.40;31.20;;;24.91;39.16;95978.38;4971868;28;20040;-67
2021/06/02 08:41:00;;;;;;;6.72;4.28;;;28.50;31.00;;;25.14;38.47;95977.66;4982559;28;20121;-67
2021/06/02 08:43:26;;;;;;;13.82;10.18;;;28.80;29.70;;;25.34;38.20;95971.25;4974235;28;20021;-71
2021/06/02 08:45:56;;;;;;;8.75;5.57;;;29.00;30.10;;;25.53;36.64;95979.41;4975304;28;20034;-70
2021/06/02 08:48:22;;;;;;;8.68;4.60;;;29.10;29.30;;;25.55;37.52;95977.22;4973710;28;20030;-70
2021/06/02 08:50:48;;;;;;;4.88;3.83;;;28.90;29.10;;;25.57;37.21;95975.03;4986308;28;20034;-69
2021/06/02 08:53:17;;;;;;;7.35;4.95;;;28.90;30.00;;;25.70;36.67;95978.97;4992876;28;20114;-69
2021/06/02 08:55:45;;;;;;;10.90;8.90;;;29.00;29.70;;;25.81;36.66;95981.28;5008168;28;20077;-71
2021/06/02 08:58:21;;;;;;;6.75;3.80;;;29.30;29.30;;;25.90;36.62;95978.72;4990369;28;20034;-71
2021/06/02 09:00:47;;;;;;;5.55;3.55;;;29.40;29.90;;;25.96;36.69;95972.16;4999076;28;20390;-69
2021/06/02 09:03:13;;;;;;;5.32;3.08;;;29.10;28.90;;;25.95;36.40;95973.25;4988315;28;20026;-70
2021/06/02 09:05:39;;;;;;;10.18;3.50;;;29.30;29.20;;;26.03;35.93;95980.72;4976112;28;20172;-71
2021/06/02 09:08:06;;;;;;;5.30;3.70;;;29.40;28.40;;;26.13;36.24;95972.47;4999240;28;20125;-71
2021/06/02 09:10:38;;;;;;;6.63;3.08;;;29.40;28.60;;;26.21;34.88;95979.91;4985155;28;20044;-70
2021/06/02 09:13:04;;;;;;;10.48;5.78;;;29.60;29.40;;;26.31;36.29;95978.19;4988865;28;20039;-70
2021/06/02 09:15:34;;;;;;;8.27;5.68;;;29.80;28.80;;;26.46;34.21;95977.97;5006928;28;20387;-69
2021/06/02 09:18:05;;;;;;;5.57;3.42;;;30.00;28.00;;;26.53;33.91;95981.13;4975865;28;20033;-70
2021/06/02 09:20:51;;;;;;;23.65;18.05;;;29.60;27.00;;;26.65;33.92;95984.16;4987869;28;20033;-71
2021/06/02 09:23:54;;;;;;;8.65;4.25;;;30.10;28.40;;;26.83;34.28;95985.22;4958128;28;20045;-70
2021/06/02 09:26:20;;;;;;;6.28;2.85;;;30.40;28.40;;;27.02;34.73;95985.22;5005071;28;20469;-70
2021/06/02 09:29:09;;;;;;;9.10;6.18;;;30.60;26.80;;;27.15;33.58;95997.94;4995547;28;20125;-73
2021/06/02 09:31:43;;;;;;;8.00;4.93;;;30.70;27.50;;;27.32;33.05;95991.97;5008704;28;20026;-70
2021/06/02 09:34:23;;;;;;;7.95;5.50;;;30.80;27.40;;;27.37;32.53;95994.56;4985947;28;20129;-67
2021/06/02 09:36:54;;;;;;;11.43;3.70;;;30.80;26.10;;;27.51;31.77;95986.50;5008108;28;20084;-68
2021/06/02 09:39:23;;;;;;;4.82;2.85;;;30.80;25.90;;;27.63;32.82;95982.22;4978156;28;20699;-68
2021/06/02 09:42:00;;;;;;;7.70;3.03;;;31.10;27.20;;;27.85;31.62;95988.84;5004815;28;20109;-70
2021/06/02 09:44:31;;;;;;;9.10;4.47;;;31.50;25.80;;;28.05;31.68;95988.38;4999759;28;20031;-66
2021/06/02 09:47:05;;;;;;;10.85;6.07;;;31.60;25.60;;;28.21;32.25;95991.56;5004078;28;20057;-66
2021/06/02 09:49:48;;;;;;;6.13;3.28;;;31.90;24.80;;;28.39;29.07;95993.38;4991728;28;20109;-66
2021/06/02 09:52:15;;;;;;;9.85;7.28;;;32.00;23.60;;;28.55;31.47;95997.34;4978656;28;20517;-67
2021/06/02 09:54:40;;;;;;;7.15;5.30;;;32.20;24.50;;;28.75;31.22;95990.66;4993083;28;20118;-66
2021/06/02 09:57:13;;;;;;;5.40;3.58;;;32.30;23.50;;;28.96;28.56;95990.97;4994530;28;20049;-75
2021/06/02 09:59:59;;;;;;;4.88;2.08;;;32.80;22.80;;;29.29;28.38;95988.78;4994474;28;20030;-74
2021/06/02 10:02:25;;;;;;;8.10;2.95;;;33.40;22.30;;;29.44;30.84;95985.69;5000688;28;20529;-75
2021/06/02 10:05:17;;;;;;;11.05;3.75;;;33.60;22.50;;;29.91;28.78;95986.03;4983706;28;20425;-75
2021/06/02 10:07:47;;;;;;;8.63;2.85;;;34.10;22.60;;;30.28;28.79;95994.75;5010058;28;20481;-75
2021/06/02 10:10:17;;;;;;;4.30;2.10;;;34.20;22.70;;;30.71;29.49;95995.59;4970958;28;20497;-75
2021/06/02 10:13:06;;;;;;;4.00;2.33;;;34.60;23.50;;;31.13;27.56;95995.06;5010558;28;20060;-74
2021/06/02 10:15:42;;;;;;;3.63;2.30;;;34.60;21.90;;;31.36;28.06;95993.75;5011137;28;20072;-77
2021/06/02 10:18:38;;;;;;;3.42;2.42;;;35.10;23.10;;;31.72;27.09;95992.56;4970785;28;20037;-77
2021/06/02 10:21:09;;;;;;;4.63;2.10;;;35.60;22.20;;;32.03;27.75;95993.03;4990415;28;20041;-74
2021/06/02 10:23:45;;;;;;;3.95;2.10;;;36.00;21.40;;;32.39;26.99;95997.16;4978461;28;20509;-75
2021/06/02 10:26:15;;;;;;;4.53;2.55;;;36.60;21.60;;;32.75;28.16;95997.34;4996289;28;20076;-75
2021/06/02 10:28:42;;;;;;;4.65;2.33;;;36.90;21.10;;;33.12;28.09;95992.06;5010697;28;20121;-74
2021/06/02 10:31:10;;;;;;;5.53;1.95;;;37.10;20.20;;;33.45;26.89;95994.78;4993923;28;20041;-76
2021/06/02 10:33:35;;;;;;;3.47;2.00;;;37.70;20.00;;;33.72;27.27;95996.06;4976815;28;20386;-77
2021/06/02 10:36:08;;;;;;;2.92;1.70;;;38.00;19.30;;;34.01;25.35;95997.81;4995112;28;20161;-75
2021/06/02 10:38:52;;;;;;;5.82;1.98;;;38.40;19.00;;;34.28;24.28;95999.03;4975085;28;20539;-71
2021/06/02 10:41:33;;;;;;;7.53;2.65;;;38.70;18.90;;;34.45;22.77;95993.38;4997744;28;20038;-72
2021/06/02 10:44:10;;;;;;;4.50;2.45;;;39.10;18.00;;;34.64;23.24;96001.75;4973995;28;20035;-73
2021/06/02 10:46:39;;;;;;;6.13;3.72;;;39.20;17.90;;;34.89;25.26;95994.28;4991841;28;20080;-72
2021/06/02 10:49:05;;;;;;;4.97;2.22;;;39.30;18.20;;;35.15;25.07;95993.81;4993795;28;20041;-73
2021/06/02 10:51:31;;;;;;;4.47;2.22;;;39.40;18.50;;;35.34;24.15;95992.34;4976863;28;20381;-73
2021/06/02 10:54:13;;;;;;;4.45;2.10;;;39.00;17.70;;;35.48;22.38;95990.78;5016134;28;20042;-73
2021/06/02 10:56:59;;;;;;;4.15;2.10;;;38.80;18.00;;;35.68;21.89;95993.63;4992446;28;20046;-72
2021/06/02 10:59:31;;;;;;;4.65;2.22;;;39.10;17.30;;;35.83;22.84;95990.94;5008849;28;20065;-74
2021/06/02 11:02:15;;;;;;;6.68;2.08;;;39.30;18.30;;;36.08;22.47;95997.00;4990448;28;20050;-73
2021/06/02 11:04:55;;;;;;;5.03;1.95;;;39.40;18.80;;;36.30;23.12;96009.22;4992608;28;20053;-72
2021/06/02 11:07:30;;;;;;;3.38;1.88;;;39.60;18.30;;;36.47;22.90;96000.66;5002656;28;20061;-73
2021/06/02 11:10:03;;;;;;;2.97;1.90;;;40.00;19.10;;;36.61;22.38;96007.56;5000294;28;20037;-73